Portada
METAR-TAF:

METAR-TAF

Aeroports :

NWS Office

Majuro, Illes Marshall

latitud: 07-05N, longitud: 171-12E, altitud: 4 m

Observació

L'informe es va fer fa 55 minuts, a les 06:54 UTC
Vent 11 kt del Est/Sud-Est
Temperatura 28°C
Humitat 84%
Pressió 1009 hPa
Visibilitat: 24.1 km
Núvols disperses a una alçada de 1400 ft
Cel ennuvolat a una alçada de 4500 ft
Cel cobert a una alçada de 11000 ft

METAR: PKMR 240654Z 12011KT 15SM SCT014 BKN045 OVC110 28/25 A2979 RMK SLP090 T02830247

Hora: 19:49 (07:49 UTC)


TAF: manca

Observacions i pronòstics meteorològics de més de 4000 aeroports (METAR i TAF).

Les estacions disponibles són els punts grocs i vermells al mapa.

Posi el ratolí al punt desitjat per veure el nom de l'estació.

Feu clic per veure les observacions i els pronòstics meteorològics.

Per canviar el mapa: feu clic els botons verds amb una creu de color negre per apropar; al botó verd amb un guió per allunyar la imatge; o en les fletxes verdes per a mapes adjacents.


METAR-TAF: